Warners (210, 211, 212) Station Data

Red Flag Warning: No
Fire Weather Zone: 258
SDGE Region: Ramona
Lat/Lon: 33.248/-116.697

Observations

Time Wind Speed/Gust Temp(F) RH Fuel Moist Fuel Temp(F) Dewpt(F) Tmax(F) Tmin(F) Accum Precip 10-min Precip SL Press(mb)
4/26 2:40am 43 4 G 6 47° 84% - - 42° 47.5° 43.2° - - -
4/26 2:30am 47 3 G 6 45° 91% - - 43° 47.5° 43.2° - - -
4/26 2:20am 45 4 G 7 44° 85% - - 40° 47.5° 43.2° - - -
4/26 2:10am 72 5 G 7 44° 79% - - 38° 47.5° 43.5° - - -
4/26 2:00am 60 4 G 6 47° 82% - - 41° 47.5° 43.5° - - -
4/26 1:50am 58 4 G 5 46° 89% - - 43° 47.5° 43.5° - - -
4/26 1:40am 83 2 G 3 46° 92% - - 43° 47.5° 43.5° - - -
4/26 1:30am 84 5 G 8 44° 89% - - 41° 47.5° 43.5° - - -
4/26 1:20am 86 5 G 7 45° 81% - - 40° 47.5° 43.7° - - -
4/26 1:10am 90 2 G 4 47° 85% - - 43° 47.5° 45.2° - - -
4/26 1:00am 88 2 G 3 47° 93% - - 45° 47.4° 45.2° - - -
4/26 12:50am 88 4 G 6 46° 89% - - 42° 47.3° 45.2° - - -
4/26 12:40am 79 6 G 7 46° 83% - - 42° 47.3° 45.4° - - -
4/26 12:30am 80 5 G 6 47° 85% - - 43° 47.3° 46.2° - - -
4/26 12:20am 74 5 G 7 47° 87% - - 43° 47.3° 46.2° - - -
4/26 12:10am 75 5 G 6 47° 86% - - 43° 47.3° 46.6° - - -
4/26 12:00am 75 5 G 7 47° 89% - - 44° 63.9° 46.2° - - -
4/25 11:50pm 77 5 G 7 47° 83% - - 42° 63.9° 46.4° - - -
4/25 11:40pm 78 5 G 6 48° 84% - - 43° 63.9° 47.1° - - -
4/25 11:30pm 80 5 G 6 48° 80% - - 42° 63.9° 47.4° - - -
4/25 11:20pm 88 2 G 3 49° 79% - - 43° 63.9° 48.4° - - -
4/25 11:10pm 133 0 G 1 50° 80% - - 44° 63.9° 48.4° - - -
4/25 11:00pm 115 2 G 4 50° 79% - - 44° 63.9° 48.4° - - -
4/25 10:50pm 111 1 G 2 50° 80% - - 44° 63.9° 48.4° - - -
4/25 10:40pm 99 2 G 3 49° 80% - - 44° 63.9° 48.4° - - -
4/25 10:30pm 99 3 G 5 49° 80% - - 43° 63.9° 48.4° - - -
4/25 10:20pm 92 5 G 5 50° 79% - - 43° 63.9° 48.4° - - -
4/25 10:10pm 138 3 G 4 51° 78% - - 44° 63.9° 48.4° - - -
4/25 10:00pm 176 4 G 4 51° 78% - - 45° 63.9° 48.4° - - -
4/25 9:50pm 201 4 G 5 51° 78% - - 45° 63.9° 48.4° - - -
4/25 9:40pm 211 6 G 7 51° 77% - - 45° 63.9° 48.4° - - -
4/25 9:30pm 198 5 G 6 52° 77% - - 45° 63.9° 48.4° - - -
4/25 9:20pm 216 4 G 6 52° 76% - - 44° 63.9° 48.4° - - -
4/25 9:10pm 232 7 G 10 52° 75% - - 45° 63.9° 48.4° - - -
4/25 9:00pm 230 7 G 9 52° 76% - - 45° 63.9° 48.4° - - -
4/25 8:50pm 225 7 G 8 52° 76% - - 45° 63.9° 48.4° - - -
4/25 8:40pm 225 7 G 9 53° 75% - - 45° 63.9° 48.4° - - -
4/25 8:30pm 215 7 G 10 53° 75% - - 45° 63.9° 48.4° - - -
4/25 8:20pm 212 5 G 7 53° 75% - - 45° 63.9° 48.4° - - -
4/25 8:10pm 216 7 G 10 53° 74% - - 45° 63.9° 48.4° - - -
4/25 8:00pm 215 6 G 10 53° 74% - - 45° 63.9° 48.4° - - -
4/25 7:50pm 211 7 G 11 53° 74% - - 45° 63.9° 48.4° - - -
4/25 7:40pm 204 5 G 9 54° 73% - - 45° 63.9° 48.4° - - -
4/25 7:30pm 211 6 G 10 55° 71% - - 45° 63.9° 48.4° - - -
4/25 7:20pm 234 9 G 14 55° 68% - - 45° 63.9° 48.4° - - -
4/25 7:10pm 247 11 G 15 56° 67% - - 45° 63.9° 48.4° - - -
4/25 7:00pm 250 12 G 15 57° 65% - - 45° 63.9° 48.4° - - -
4/25 6:50pm 252 14 G 19 57° 64% - - 45° 63.9° 48.4° - - -
4/25 6:40pm 252 14 G 17 57° 63% - - 45° 63.9° 48.4° - - -
4/25 6:30pm 260 11 G 16 58° 63% - - 45° 63.9° 48.4° - - -
4/25 6:20pm 264 12 G 17 58° 63% - - 45° 63.9° 48.4° - - -
4/25 6:10pm 256 11 G 17 58° 62% - - 45° 63.9° 48.4° - - -
4/25 6:00pm 252 12 G 18 58° 62% - - 45° 63.9° 48.4° - - -
4/25 5:50pm 254 13 G 17 58° 61% - - 45° 63.9° 48.4° - - -
4/25 5:40pm 254 14 G 18 59° 59% - - 45° 63.9° 48.4° - - -
4/25 5:30pm 258 13 G 18 59° 60% - - 45° 63.9° 48.4° - - -
4/25 5:20pm 258 12 G 20 59° 59% - - 45° 63.9° 48.4° - - -
4/25 5:10pm 252 13 G 17 59° 58% - - 45° 63.9° 48.4° - - -
4/25 5:00pm 243 13 G 20 60° 57% - - 45° 63.9° 48.4° - - -
4/25 4:50pm 244 14 G 19 61° 56% - - 45° 63.9° 48.4° - - -
4/25 4:40pm 253 15 G 20 60° 57% - - 45° 63.9° 48.4° - - -
4/25 4:30pm 248 15 G 21 60° 56% - - 44° 63.9° 48.4° - - -
4/25 4:20pm 249 15 G 22 62° 53% - - 44° 63.9° 48.4° - - -
4/25 4:10pm 247 16 G 21 61° 54% - - 44° 63.9° 48.4° - - -
4/25 4:00pm 243 16 G 22 61° 53% - - 44° 63.9° 48.4° - - -
4/25 3:50pm 251 16 G 22 61° 53% - - 44° 63.9° 48.4° - - -
4/25 3:40pm 247 16 G 21 61° 52% - - 44° 63.9° 48.4° - - -
4/25 3:30pm 246 16 G 21 60° 54% - - 44° 63.9° 48.4° - - -
4/25 3:20pm 246 15 G 21 61° 54% - - 44° 63.9° 48.4° - - -
4/25 3:10pm 239 14 G 18 61° 53% - - 44° 63.9° 48.4° - - -
4/25 3:00pm 243 14 G 20 61° 54% - - 44° 63.9° 48.4° - - -
4/25 2:50pm 225 16 G 21 61° 54% - - 44° 63.9° 48.4° - - -
4/25 2:40pm 250 15 G 20 62° 51% - - 43° 63.9° 48.4° - - -
4/25 2:30pm 249 14 G 18 61° 51% - - 43° 63.9° 48.4° - - -
4/25 2:20pm 254 15 G 20 62° 50% - - 43° 63.9° 48.4° - - -
4/25 2:10pm 248 16 G 22 63° 48% - - 43° 63.9° 48.4° - - -
4/25 2:00pm 247 16 G 20 63° 47% - - 42° 63.9° 48.4° - - -
4/25 1:50pm 252 16 G 20 62° 47% - - 42° 63° 48.4° - - -
4/25 1:40pm 254 15 G 20 62° 46% - - 41° 62.6° 48.4° - - -
4/25 1:30pm 252 15 G 21 62° 46% - - 41° 62.5° 48.4° - - -
4/25 1:20pm 252 16 G 22 61° 47% - - 41° 62.4° 48.4° - - -
4/25 1:10pm 251 17 G 22 61° 48% - - 41° 62.4° 48.4° - - -
4/25 1:00pm 257 16 G 23 61° 47% - - 41° 62.4° 48.4° - - -
4/25 12:50pm 253 16 G 24 61° 47% - - 41° 62.4° 48.4° - - -
4/25 12:40pm 257 15 G 22 61° 48% - - 41° 61.7° 48.4° - - -
4/25 12:30pm 256 14 G 20 61° 49% - - 41° 61.6° 48.4° - - -
4/25 12:20pm 251 15 G 21 60° 50% - - 41° 61.3° 48.4° - - -
4/25 12:10pm 254 13 G 20 60° 49% - - 41° 61.3° 48.4° - - -
4/25 12:00pm 245 13 G 18 59° 52% - - 41° 60° 48.4° - - -
4/25 11:50am 243 14 G 20 59° 54% - - 42° 59° 48.4° - - -
4/25 11:40am 237 12 G 18 58° 55% - - 42° 59° 48.4° - - -
4/25 11:30am 239 13 G 18 58° 57% - - 42° 58.2° 48.4° - - -
4/25 11:20am 236 12 G 15 57° 56% - - 42° 58.2° 48.4° - - -
4/25 11:10am 229 14 G 19 57° 56% - - 42° 58.2° 48.4° - - -
4/25 11:00am 234 13 G 18 57° 56% - - 42° 58.2° 48.4° - - -
4/25 10:50am 230 11 G 17 57° 56% - - 42° 58.2° 48.4° - - -
4/25 10:40am 245 14 G 20 58° 54% - - 41° 58.2° 48.4° - - -
4/25 10:30am 243 15 G 20 57° 55% - - 41° 57.7° 48.4° - - -
4/25 10:20am 241 13 G 19 57° 56% - - 41° 57.2° 48.4° - - -
4/25 10:10am 242 15 G 21 56° 57% - - 41° 57.1° 48.4° - - -
4/25 10:00am 248 14 G 21 55° 59% - - 41° 56.2° 48.4° - - -
4/25 9:50am 240 12 G 18 55° 62% - - 42° 55.7° 48.4° - - -
4/25 9:40am 245 12 G 20 55° 60% - - 42° 55.7° 48.4° - - -
4/25 9:30am 246 13 G 18 54° 62% - - 42° 55° 48.4° - - -
4/25 9:20am 256 13 G 21 54° 64% - - 42° 54.7° 48.4° - - -
4/25 9:10am 251 14 G 21 54° 65% - - 42° 54.7° 48.4° - - -
4/25 9:00am 248 14 G 21 53° 65% - - 42° 53.9° 48.4° - - -
4/25 8:50am 241 15 G 22 53° 65% - - 42° 53.3° 48.4° - - -
4/25 8:40am 245 14 G 19 53° 66% - - 42° 53.3° 48.4° - - -
4/25 8:30am 242 14 G 19 53° 66% - - 42° 53.2° 48.4° - - -
4/25 8:20am 244 11 G 19 52° 68% - - 42° 52.8° 48.4° - - -
4/25 8:10am 241 11 G 15 52° 70% - - 42° 52.2° 48.4° - - -
4/25 8:00am 254 11 G 17 51° 74% - - 43° 51.7° 48.4° - - -
4/25 7:50am 258 12 G 17 51° 75% - - 43° 51.3° 48.4° - - -
4/25 7:40am 243 9 G 12 51° 76% - - 44° 51.3° 48.4° - - -
4/25 7:30am 232 10 G 16 50° 78% - - 44° 50.8° 48.4° - - -
4/25 7:20am 227 9 G 11 50° 80% - - 44° 50.5° 48.4° - - -
4/25 7:10am 232 10 G 13 50° 82% - - 44° 50.1° 48.4° - - -
4/25 7:00am 230 11 G 16 50° 80% - - 44° 50.1° 48.4° - - -
4/25 6:50am 230 12 G 17 49° 83% - - 44° 50.1° 48.4° - - -
4/25 6:40am 226 14 G 19 49° 84% - - 44° 50.1° 48.4° - - -
4/25 6:30am 226 14 G 18 49° 83% - - 44° 50.1° 48.4° - - -
4/25 6:20am 229 13 G 18 49° 83% - - 44° 50.1° 48.4° - - -
4/25 6:10am 230 12 G 16 49° 84% - - 44° 50.1° 48.4° - - -
4/25 6:00am 229 12 G 18 49° 84% - - 45° 50.1° 48.4° - - -
4/25 5:50am 228 11 G 15 49° 84% - - 44° 50.1° 48.4° - - -
4/25 5:40am 221 13 G 17 49° 83% - - 44° 50.1° 48.4° - - -
4/25 5:30am 225 12 G 16 49° 84% - - 45° 50.1° 48.4° - - -
4/25 5:20am 224 10 G 14 49° 85% - - 45° 50.1° 48.4° - - -
4/25 5:10am 224 9 G 12 49° 86% - - 45° 50.1° 48.4° - - -
4/25 5:00am 217 10 G 14 49° 86% - - 45° 50.1° 48.4° - - -
4/25 4:50am 218 11 G 14 49° 89% - - 46° 50.1° 48.4° - - -
4/25 4:40am 225 8 G 12 49° 89% - - 46° 50.1° 48.4° - - -
4/25 4:30am 221 7 G 9 50° 89% - - 46° 50.1° 48.4° - - -
4/25 4:20am 218 8 G 10 49° 91% - - 47° 50.1° 48.4° - - -
4/25 4:10am 219 8 G 10 49° 94% - - 48° 50.1° 48.4° - - -
4/25 4:00am 216 9 G 12 49° 94% - - 48° 50.1° 48.4° - - -
4/25 3:50am 215 9 G 12 49° 93% - - 47° 50.1° 48.4° - - -
4/25 3:40am 213 11 G 16 49° 94% - - 47° 50.1° 48.4° - - -
4/25 3:30am 222 11 G 16 49° 96% - - 48° 50.1° 48.4° - - -
4/25 3:20am 217 12 G 16 49° 97% - - 48° 50.1° 48.4° - - -
4/25 3:10am 218 12 G 16 49° 98% - - 48° 50.1° 48.4° - - -
4/25 3:00am 217 15 G 20 49° 97% - - 48° 50.1° 48.5° - - -
4/25 2:50am 221 13 G 19 49° 96% - - 48° 50.1° 48.5° - - -
4/25 2:40am 225 12 G 16 49° 97% - - 48° 50.1° 48.5° - - -
4/25 2:30am 222 12 G 17 49° 97% - - 48° 50.1° 48.5° - - -
4/25 2:20am 214 12 G 17 49° 97% - - 48° 50.1° 48.6° - - -
4/25 2:10am 217 14 G 18 49° 97% - - 48° 50.1° 48.8° - - -
4/25 2:00am 216 15 G 19 49° 96% - - 48° 50.1° 48.8° - - -
4/25 1:50am 215 12 G 17 49° 94% - - 48° 50.1° 48.8° - - -
4/25 1:40am 212 13 G 16 49° 88% - - 46° 50.1° 48.8° - - -
4/25 1:30am 213 13 G 19 49° 86% - - 46° 50.1° 48.8° - - -
4/25 1:20am 214 13 G 17 49° 86% - - 46° 50.1° 48.8° - - -
4/25 1:10am 216 13 G 18 49° 88% - - 46° 50.1° 48.8° - - -
4/25 1:00am 219 14 G 19 49° 92% - - 47° 50.1° 48.8° - - -
4/25 12:50am 217 14 G 18 49° 95% - - 48° 50.1° 48.8° - - -
4/25 12:40am 210 12 G 17 49° 97% - - 48° 50.1° 48.8° - - -
4/25 12:30am 207 12 G 16 49° 97% - - 48° 50.1° 48.9° - - -
4/25 12:20am 207 13 G 17 49° 95% - - 48° 50.1° 49° - - -
4/25 12:10am 211 12 G 17 50° 88% - - 46° 50.1° 49.4° - - -
4/25 12:00am 214 14 G 18 50° 80% - - 44° 67.1° 40.6° - - -
4/24 11:50pm 206 13 G 19 50° 81% - - 44° 67.1° 40.6° - - -
4/24 11:40pm 213 15 G 20 51° 77% - - 44° 67.1° 40.6° - - -
4/24 11:30pm 229 16 G 23 51° 75% - - 43° 67.1° 40.6° - - -
4/24 11:20pm 235 15 G 23 52° 72% - - 43° 67.1° 40.6° - - -
4/24 11:10pm 225 13 G 19 51° 73% - - 43° 67.1° 40.6° - - -
4/24 11:00pm 219 14 G 19 51° 77% - - 44° 67.1° 40.6° - - -
4/24 10:50pm 223 15 G 20 51° 77% - - 44° 67.1° 40.6° - - -
4/24 10:40pm 213 14 G 18 51° 77% - - 44° 67.1° 40.6° - - -
4/24 10:30pm 217 13 G 20 51° 76% - - 44° 67.1° 40.6° - - -
4/24 10:20pm 217 14 G 19 51° 76% - - 44° 67.1° 40.6° - - -
4/24 10:10pm 217 13 G 17 51° 76% - - 44° 67.1° 40.6° - - -
4/24 10:00pm 215 11 G 15 51° 75% - - 44° 67.1° 40.6° - - -
4/24 9:50pm 211 11 G 15 51° 75% - - 43° 67.1° 40.6° - - -
4/24 9:40pm 207 11 G 16 52° 74% - - 43° 67.1° 40.6° - - -
4/24 9:30pm 210 12 G 16 52° 74% - - 44° 67.1° 40.6° - - -
4/24 9:20pm 215 12 G 17 52° 74% - - 44° 67.1° 40.6° - - -
4/24 9:10pm 211 12 G 17 52° 73% - - 44° 67.1° 40.6° - - -
4/24 9:00pm 209 12 G 17 52° 73% - - 44° 67.1° 40.6° - - -
4/24 8:50pm 208 11 G 17 52° 74% - - 44° 67.1° 40.6° - - -
4/24 8:40pm 212 11 G 15 52° 75% - - 44° 67.1° 40.6° - - -
4/24 8:30pm 212 11 G 15 52° 75% - - 44° 67.1° 40.6° - - -
4/24 8:20pm 215 13 G 17 53° 74% - - 45° 67.1° 40.6° - - -
4/24 8:10pm 212 14 G 19 53° 75% - - 45° 67.1° 40.6° - - -
4/24 8:00pm 213 14 G 18 53° 75% - - 45° 67.1° 40.6° - - -
4/24 7:50pm 215 15 G 20 53° 75% - - 45° 67.1° 40.6° - - -
4/24 7:40pm 217 15 G 19 53° 74% - - 45° 67.1° 40.6° - - -
4/24 7:30pm 214 15 G 20 54° 74% - - 45° 67.1° 40.6° - - -
4/24 7:20pm 216 15 G 19 54° 73% - - 45° 67.1° 40.6° - - -
4/24 7:10pm 215 15 G 20 54° 71% - - 45° 67.1° 40.6° - - -
4/24 7:00pm 211 15 G 20 55° 71% - - 45° 67.1° 40.6° - - -
4/24 6:50pm 218 14 G 19 55° 70% - - 45° 67.1° 40.6° - - -
4/24 6:40pm 217 16 G 22 55° 69% - - 45° 67.1° 40.6° - - -
4/24 6:30pm 217 15 G 19 56° 68% - - 46° 67.1° 40.6° - - -
4/24 6:20pm 220 15 G 20 56° 68% - - 46° 67.1° 40.6° - - -
4/24 6:10pm 218 15 G 20 58° 63% - - 45° 67.1° 40.6° - - -
4/24 6:00pm 220 15 G 21 59° 60% - - 45° 67.1° 40.6° - - -